Time,TemperatureF,DewpointF,PressureIn,WindDirection,WindDirectionDegrees,WindSpeedMPH,WindSpeedGustMPH,Humidity,HourlyPrecipIn,Conditions,Clouds,dailyrainin,SoftwareType,DateUTC
2013-05-20 00:01:00,53.0,39.0,29.65,South,182,0.0,0.0,58,0.00,,,0.00,,2013-05-20 06:01:00,
2013-05-20 00:11:00,53.0,39.0,29.65,South,182,0.0,0.0,58,0.00,,,0.00,,2013-05-20 06:11:00,
2013-05-20 00:21:00,53.0,39.0,29.65,South,176,0.0,2.0,59,0.00,,,0.00,,2013-05-20 06:21:00,
2013-05-20 00:32:00,52.0,38.0,29.65,South,184,0.0,4.0,58,0.00,,,0.00,,2013-05-20 06:32:00,
2013-05-20 00:41:00,52.0,38.0,29.65,South,184,0.0,4.0,58,0.00,,,0.00,,2013-05-20 06:41:00,
2013-05-20 00:52:00,52.0,38.0,29.65,South,184,0.0,2.0,59,0.00,,,0.00,,2013-05-20 06:52:00,
2013-05-20 01:01:00,51.0,37.0,29.65,South,184,0.0,1.0,59,0.00,,,0.00,,2013-05-20 07:01:00,
2013-05-20 01:12:00,51.0,37.0,29.65,South,184,0.0,1.0,59,0.00,,,0.00,,2013-05-20 07:12:00,
2013-05-20 01:21:00,51.0,38.0,29.64,South,184,0.0,1.0,60,0.00,,,0.00,,2013-05-20 07:21:00,
2013-05-20 01:32:00,50.0,37.0,29.65,South,184,0.0,0.0,61,0.00,,,0.00,,2013-05-20 07:32:00,
2013-05-20 01:42:00,50.0,37.0,29.65,South,184,0.0,0.0,61,0.00,,,0.00,,2013-05-20 07:42:00,
2013-05-20 01:52:00,50.0,38.0,29.64,South,184,0.0,0.0,63,0.00,,,0.00,,2013-05-20 07:52:00,
2013-05-20 02:01:00,49.0,37.0,29.64,South,184,0.0,2.0,63,0.00,,,0.00,,2013-05-20 08:01:00,
2013-05-20 02:11:00,49.0,37.0,29.64,South,184,0.0,2.0,63,0.00,,,0.00,,2013-05-20 08:11:00,
2013-05-20 02:21:00,49.0,37.0,29.64,South,184,0.0,3.0,64,0.00,,,0.00,,2013-05-20 08:21:00,
2013-05-20 02:32:00,49.0,38.0,29.65,South,184,0.0,0.0,65,0.00,,,0.00,,2013-05-20 08:32:00,
2013-05-20 02:41:00,49.0,38.0,29.65,South,184,0.0,0.0,65,0.00,,,0.00,,2013-05-20 08:41:00,
2013-05-20 02:52:00,49.0,37.0,29.65,ESE,121,1.0,4.0,63,0.00,,,0.00,,2013-05-20 08:52:00,
2013-05-20 03:02:00,50.0,37.0,29.65,ESE,105,2.0,5.0,61,0.00,,,0.00,,2013-05-20 09:02:00,
2013-05-20 03:12:00,50.0,37.0,29.65,ESE,105,2.0,5.0,61,0.00,,,0.00,,2013-05-20 09:12:00,
2013-05-20 03:21:00,50.0,36.0,29.65,SE,126,0.0,3.0,59,0.00,,,0.00,,2013-05-20 09:21:00,
2013-05-20 03:32:00,50.0,35.0,29.66,SE,126,0.0,0.0,57,0.00,,,0.00,,2013-05-20 09:32:00,
2013-05-20 03:43:00,50.0,35.0,29.66,SE,126,0.0,0.0,57,0.00,,,0.00,,2013-05-20 09:43:00,
2013-05-20 03:53:00,50.0,36.0,29.67,ESE,102,0.0,0.0,58,0.00,,,0.00,,2013-05-20 09:53:00,
2013-05-20 04:03:00,51.0,37.0,29.67,SE,130,3.0,6.0,59,0.00,,,0.00,,2013-05-20 10:03:00,
2013-05-20 04:12:00,51.0,37.0,29.67,SE,130,3.0,6.0,59,0.00,,,0.00,,2013-05-20 10:12:00,
2013-05-20 04:22:00,51.0,38.0,29.68,ESE,118,0.0,3.0,61,0.00,,,0.00,,2013-05-20 10:22:00,
2013-05-20 04:32:00,50.0,38.0,29.69,East,82,1.0,3.0,64,0.00,,,0.00,,2013-05-20 10:32:00,
2013-05-20 04:42:00,50.0,38.0,29.69,East,82,1.0,3.0,64,0.00,,,0.00,,2013-05-20 10:42:00,
2013-05-20 04:52:00,50.0,39.0,29.69,ENE,63,0.0,2.0,66,0.00,,,0.00,,2013-05-20 10:52:00,
2013-05-20 05:02:00,50.0,40.0,29.70,NE,49,0.0,2.0,69,0.00,,,0.00,,2013-05-20 11:02:00,
2013-05-20 05:12:00,50.0,40.0,29.70,NE,49,0.0,2.0,69,0.00,,,0.00,,2013-05-20 11:12:00,
2013-05-20 05:21:00,49.0,40.0,29.70,East,81,0.0,0.0,72,0.00,,,0.00,,2013-05-20 11:21:00,
2013-05-20 05:32:00,49.0,41.0,29.71,East,101,0.0,5.0,73,0.00,,,0.00,,2013-05-20 11:32:00,
2013-05-20 05:41:00,49.0,41.0,29.71,East,101,0.0,5.0,73,0.00,,,0.00,,2013-05-20 11:41:00,
2013-05-20 05:52:00,49.0,41.0,29.71,ESE,111,0.0,4.0,74,0.00,,,0.00,,2013-05-20 11:52:00,
2013-05-20 06:01:00,49.0,42.0,29.72,ESE,113,1.0,4.0,76,0.00,,,0.00,,2013-05-20 12:01:00,
2013-05-20 06:11:00,49.0,42.0,29.72,ESE,113,1.0,4.0,76,0.00,,,0.00,,2013-05-20 12:11:00,
2013-05-20 06:21:00,49.0,42.0,29.73,SE,128,0.0,4.0,78,0.00,,,0.00,,2013-05-20 12:21:00,
2013-05-20 06:32:00,48.0,42.0,29.73,NNE,22,0.0,4.0,79,0.00,,,0.00,,2013-05-20 12:32:00,
2013-05-20 06:41:00,48.0,42.0,29.73,NNE,22,0.0,4.0,79,0.00,,,0.00,,2013-05-20 12:41:00,
2013-05-20 06:52:00,48.0,42.0,29.74,North,355,1.0,4.0,81,0.00,,,0.00,,2013-05-20 12:52:00,
2013-05-20 07:01:00,48.0,43.0,29.75,North,355,1.0,3.0,82,0.00,,,0.00,,2013-05-20 13:01:00,
2013-05-20 07:11:00,48.0,43.0,29.75,North,355,1.0,3.0,82,0.00,,,0.00,,2013-05-20 13:11:00,
2013-05-20 07:22:00,48.0,44.0,29.75,North,5,0.0,2.0,85,0.01,,,0.01,,2013-05-20 13:22:00,
2013-05-20 07:31:00,47.0,43.0,29.75,North,5,0.0,0.0,86,0.02,,,0.02,,2013-05-20 13:31:00,
2013-05-20 07:41:00,47.0,43.0,29.75,North,5,0.0,0.0,86,0.02,,,0.02,,2013-05-20 13:41:00,
2013-05-20 07:52:00,48.0,44.0,29.75,North,5,0.0,0.0,86,0.02,,,0.02,,2013-05-20 13:52:00,
2013-05-20 08:01:00,48.0,45.0,29.75,North,5,0.0,0.0,88,0.03,,,0.03,,2013-05-20 14:01:00,
2013-05-20 08:11:00,48.0,45.0,29.75,North,5,0.0,0.0,88,0.03,,,0.03,,2013-05-20 14:11:00,
2013-05-20 08:22:00,48.0,45.0,29.75,North,5,0.0,0.0,88,0.03,,,0.04,,2013-05-20 14:22:00,
2013-05-20 08:32:00,48.0,45.0,29.75,WNW,286,0.0,1.0,89,0.03,,,0.05,,2013-05-20 14:32:00,
2013-05-20 08:41:00,48.0,45.0,29.75,WNW,286,0.0,1.0,89,0.03,,,0.05,,2013-05-20 14:41:00,
2013-05-20 08:52:00,49.0,46.0,29.74,SSW,194,0.0,4.0,90,0.03,,,0.05,,2013-05-20 14:52:00,
2013-05-20 09:01:00,50.0,47.0,29.74,South,188,0.0,4.0,89,0.02,,,0.05,,2013-05-20 15:01:00,
2013-05-20 09:11:00,50.0,47.0,29.74,South,188,0.0,4.0,89,0.02,,,0.05,,2013-05-20 15:11:00,
2013-05-20 09:21:00,51.0,47.0,29.74,WSW,241,2.0,9.0,85,0.01,,,0.05,,2013-05-20 15:21:00,
2013-05-20 09:33:00,52.0,46.0,29.73,SSE,168,0.0,8.0,81,0.00,,,0.05,,2013-05-20 15:33:00,
2013-05-20 09:42:00,52.0,46.0,29.73,SSE,168,0.0,8.0,81,0.00,,,0.05,,2013-05-20 15:42:00,
2013-05-20 09:53:00,54.0,47.0,29.73,SSW,194,1.0,7.0,76,0.00,,,0.05,,2013-05-20 15:53:00,
2013-05-20 10:03:00,54.0,46.0,29.73,SW,231,2.0,7.0,73,0.00,,,0.05,,2013-05-20 16:03:00,
2013-05-20 10:12:00,54.0,46.0,29.73,SW,231,2.0,7.0,73,0.00,,,0.05,,2013-05-20 16:12:00,
2013-05-20 10:22:00,56.0,46.0,29.72,South,186,1.0,7.0,68,0.00,,,0.05,,2013-05-20 16:22:00,
2013-05-20 10:33:00,57.0,45.0,29.71,SW,229,2.0,6.0,63,0.00,,,0.05,,2013-05-20 16:33:00,
2013-05-20 10:42:00,57.0,45.0,29.71,SW,229,2.0,6.0,63,0.00,,,0.05,,2013-05-20 16:42:00,
2013-05-20 10:53:00,58.0,43.0,29.70,SW,229,2.0,6.0,57,0.00,,,0.05,,2013-05-20 16:53:00,
2013-05-20 11:02:00,60.0,42.0,29.70,SSE,153,2.0,5.0,52,0.00,,,0.05,,2013-05-20 17:02:00,
2013-05-20 11:12:00,60.0,42.0,29.70,SSE,153,2.0,5.0,52,0.00,,,0.05,,2013-05-20 17:12:00,
2013-05-20 11:22:00,62.0,42.0,29.70,South,186,1.0,5.0,48,0.00,,,0.05,,2013-05-20 17:22:00,
2013-05-20 11:33:00,63.0,38.0,29.69,South,175,1.0,3.0,40,0.00,,,0.05,,2013-05-20 17:33:00,
2013-05-20 11:45:00,63.0,38.0,29.69,South,175,1.0,3.0,40,0.00,,,0.05,,2013-05-20 17:45:00,
2013-05-20 11:53:00,62.0,36.0,29.70,NE,38,3.0,7.0,38,0.00,,,0.05,,2013-05-20 17:53:00,
2013-05-20 12:02:00,63.0,38.0,29.70,NNW,341,5.0,9.0,39,0.00,,,0.05,,2013-05-20 18:02:00,
2013-05-20 12:12:00,63.0,38.0,29.70,NNW,341,5.0,9.0,39,0.00,,,0.05,,2013-05-20 18:12:00,
2013-05-20 12:23:00,63.0,41.0,29.70,NNE,16,3.0,13.0,44,0.00,,,0.05,,2013-05-20 18:23:00,
2013-05-20 12:32:00,62.0,37.0,29.71,North,9,5.0,10.0,40,0.00,,,0.05,,2013-05-20 18:32:00,
2013-05-20 12:42:00,62.0,37.0,29.71,North,9,5.0,10.0,40,0.00,,,0.05,,2013-05-20 18:42:00,
2013-05-20 12:55:00,61.0,36.0,29.71,West,263,1.0,12.0,40,0.00,,,0.05,,2013-05-20 18:55:00,
2013-05-20 13:04:00,61.0,38.0,29.72,NNE,20,8.0,16.0,43,0.00,,,0.05,,2013-05-20 19:04:00,
2013-05-20 13:11:00,61.0,38.0,29.72,NNE,20,8.0,16.0,43,0.00,,,0.05,,2013-05-20 19:11:00,
2013-05-20 13:21:00,57.0,42.0,29.72,NNE,24,3.0,14.0,57,0.00,,,0.05,,2013-05-20 19:21:00,
2013-05-20 13:32:00,60.0,39.0,29.72,North,10,1.0,4.0,45,0.00,,,0.05,,2013-05-20 19:32:00,
2013-05-20 13:41:00,60.0,39.0,29.72,North,10,1.0,4.0,45,0.00,,,0.05,,2013-05-20 19:41:00,
2013-05-20 13:52:00,62.0,40.0,29.71,West,277,1.0,4.0,44,0.00,,,0.05,,2013-05-20 19:52:00,
2013-05-20 14:01:00,63.0,41.0,29.71,ESE,103,0.0,0.0,45,0.00,,,0.05,,2013-05-20 20:01:00,
2013-05-20 14:12:00,63.0,41.0,29.71,ESE,103,0.0,0.0,45,0.00,,,0.05,,2013-05-20 20:12:00,
2013-05-20 14:21:00,63.0,39.0,29.71,SSE,155,2.0,7.0,41,0.00,,,0.05,,2013-05-20 20:21:00,
2013-05-20 14:32:00,63.0,40.0,29.71,NNE,12,0.0,3.0,43,0.00,,,0.05,,2013-05-20 20:32:00,
2013-05-20 14:42:00,63.0,40.0,29.71,NNE,12,0.0,3.0,43,0.00,,,0.05,,2013-05-20 20:42:00,
2013-05-20 14:52:00,65.0,39.0,29.72,NNE,26,1.0,7.0,38,0.00,,,0.05,,2013-05-20 20:52:00,
2013-05-20 15:01:00,64.0,39.0,29.72,NNE,24,2.0,7.0,39,0.00,,,0.05,,2013-05-20 21:01:00,
2013-05-20 15:11:00,64.0,39.0,29.72,NNE,24,2.0,7.0,39,0.00,,,0.05,,2013-05-20 21:11:00,
2013-05-20 15:21:00,63.0,38.0,29.72,NNE,14,1.0,6.0,40,0.00,,,0.05,,2013-05-20 21:21:00,
2013-05-20 15:32:00,61.0,43.0,29.74,North,5,9.0,18.0,51,0.00,,,0.05,,2013-05-20 21:32:00,
2013-05-20 15:43:00,53.0,46.0,29.75,NE,34,0.0,6.0,76,0.13,,,0.18,,2013-05-20 21:43:00,
2013-05-20 15:53:00,53.0,46.0,29.75,NE,34,0.0,6.0,76,0.13,,,0.18,,2013-05-20 21:53:00,
2013-05-20 16:02:00,53.0,46.0,29.74,NNE,30,2.0,7.0,76,0.15,,,0.20,,2013-05-20 22:02:00,
2013-05-20 16:12:00,53.0,46.0,29.74,NNE,30,2.0,7.0,76,0.15,,,0.20,,2013-05-20 22:12:00,
2013-05-20 16:23:00,54.0,46.0,29.74,NE,37,1.0,6.0,74,0.15,,,0.20,,2013-05-20 22:23:00,
2013-05-20 16:33:00,53.0,45.0,29.74,NE,37,1.0,14.0,74,0.15,,,0.21,,2013-05-20 22:33:00,
2013-05-20 16:42:00,53.0,45.0,29.74,NE,37,1.0,14.0,74,0.15,,,0.21,,2013-05-20 22:42:00,
2013-05-20 16:52:00,53.0,45.0,29.77,NE,41,0.0,6.0,75,0.03,,,0.21,,2013-05-20 22:52:00,
2013-05-20 17:02:00,53.0,47.0,29.76,South,190,0.0,3.0,80,0.01,,,0.21,,2013-05-20 23:02:00,
2013-05-20 17:12:00,53.0,47.0,29.76,South,190,0.0,3.0,80,0.01,,,0.21,,2013-05-20 23:12:00,
2013-05-20 17:22:00,53.0,48.0,29.76,SE,129,0.0,2.0,82,0.01,,,0.21,,2013-05-20 23:22:00,
2013-05-20 17:32:00,53.0,47.0,29.77,SE,140,0.0,2.0,80,0.00,,,0.21,,2013-05-20 23:32:00,
2013-05-20 17:42:00,53.0,47.0,29.77,SE,140,0.0,2.0,80,0.00,,,0.21,,2013-05-20 23:42:00,
2013-05-20 17:53:00,54.0,47.0,29.78,ENE,62,0.0,3.0,76,0.00,,,0.21,,2013-05-20 23:53:00,
2013-05-20 18:01:00,53.0,46.0,29.78,ESE,108,2.0,6.0,78,0.01,,,0.22,,2013-05-21 00:01:00,
2013-05-20 18:11:00,53.0,46.0,29.78,ESE,108,2.0,6.0,78,0.01,,,0.22,,2013-05-21 00:11:00,
2013-05-20 18:21:00,53.0,46.0,29.78,SE,129,2.0,8.0,78,0.01,,,0.22,,2013-05-21 00:21:00,
2013-05-20 18:32:00,53.0,46.0,29.79,East,98,0.0,6.0,77,0.01,,,0.22,,2013-05-21 00:32:00,
2013-05-20 18:42:00,55.0,46.0,29.79,ESE,113,1.0,4.0,71,0.01,,,0.22,,2013-05-21 00:42:00,
2013-05-20 18:52:00,55.0,46.0,29.79,ESE,113,1.0,4.0,71,0.01,,,0.22,,2013-05-21 00:52:00,
2013-05-20 19:01:00,56.0,44.0,29.80,NE,38,3.0,12.0,63,0.00,,,0.22,,2013-05-21 01:01:00,
2013-05-20 19:11:00,56.0,44.0,29.80,NE,38,3.0,12.0,63,0.00,,,0.22,,2013-05-21 01:11:00,
2013-05-20 19:22:00,55.0,43.0,29.81,NNE,19,1.0,8.0,63,0.00,,,0.22,,2013-05-21 01:22:00,
2013-05-20 19:32:00,55.0,43.0,29.82,ESE,111,0.0,4.0,63,0.00,,,0.22,,2013-05-21 01:32:00,
2013-05-20 19:42:00,55.0,43.0,29.82,ESE,111,0.0,4.0,63,0.00,,,0.22,,2013-05-21 01:42:00,
2013-05-20 19:53:00,55.0,43.0,29.83,NE,55,0.0,1.0,63,0.00,,,0.22,,2013-05-21 01:53:00,
2013-05-20 20:02:00,54.0,41.0,29.84,NE,35,1.0,7.0,61,0.00,,,0.22,,2013-05-21 02:02:00,
2013-05-20 20:11:00,54.0,41.0,29.84,NE,35,1.0,7.0,61,0.00,,,0.22,,2013-05-21 02:11:00,
2013-05-20 20:21:00,53.0,41.0,29.84,East,100,3.0,7.0,63,0.00,,,0.22,,2013-05-21 02:21:00,
2013-05-20 20:32:00,53.0,42.0,29.84,ESE,107,0.0,3.0,66,0.00,,,0.22,,2013-05-21 02:32:00,
2013-05-20 20:42:00,53.0,42.0,29.84,ESE,107,0.0,3.0,66,0.00,,,0.22,,2013-05-21 02:42:00,
2013-05-20 20:52:00,52.0,41.0,29.85,SE,146,0.0,0.0,66,0.00,,,0.22,,2013-05-21 02:52:00,
2013-05-20 21:02:00,52.0,41.0,29.86,SE,138,0.0,0.0,67,0.00,,,0.22,,2013-05-21 03:02:00,
2013-05-20 21:11:00,52.0,41.0,29.86,SE,138,0.0,0.0,67,0.00,,,0.22,,2013-05-21 03:11:00,
2013-05-20 21:21:00,52.0,42.0,29.86,SE,138,0.0,0.0,69,0.00,,,0.22,,2013-05-21 03:21:00,
2013-05-20 21:33:00,51.0,42.0,29.87,SSE,166,0.0,0.0,71,0.00,,,0.22,,2013-05-21 03:33:00,
2013-05-20 21:43:00,51.0,42.0,29.87,SSE,166,0.0,0.0,71,0.00,,,0.22,,2013-05-21 03:43:00,
2013-05-20 21:53:00,51.0,43.0,29.88,SSE,166,0.0,0.0,73,0.00,,,0.22,,2013-05-21 03:53:00,
2013-05-20 22:03:00,51.0,42.0,29.88,SSE,166,0.0,0.0,72,0.00,,,0.22,,2013-05-21 04:03:00,
2013-05-20 22:13:00,51.0,42.0,29.88,SSE,166,0.0,0.0,72,0.00,,,0.22,,2013-05-21 04:13:00,
2013-05-20 22:23:00,51.0,42.0,29.89,SSE,156,0.0,1.0,70,0.00,,,0.22,,2013-05-21 04:23:00,
2013-05-20 22:33:00,51.0,42.0,29.89,SSE,157,0.0,1.0,70,0.00,,,0.22,,2013-05-21 04:33:00,
2013-05-20 22:42:00,51.0,42.0,29.89,SSE,157,0.0,1.0,70,0.00,,,0.22,,2013-05-21 04:42:00,
2013-05-20 22:53:00,51.0,42.0,29.89,SSE,157,0.0,0.0,71,0.00,,,0.22,,2013-05-21 04:53:00,
2013-05-20 23:02:00,50.0,42.0,29.89,SSE,157,0.0,0.0,73,0.00,,,0.22,,2013-05-21 05:02:00,
2013-05-20 23:12:00,50.0,42.0,29.89,SSE,157,0.0,0.0,73,0.00,,,0.22,,2013-05-21 05:12:00,
2013-05-20 23:22:00,50.0,42.0,29.89,SSE,157,0.0,0.0,73,0.00,,,0.22,,2013-05-21 05:22:00,
2013-05-20 23:32:00,50.0,42.0,29.89,SSE,159,0.0,0.0,73,0.00,,,0.22,,2013-05-21 05:32:00,
2013-05-20 23:42:00,50.0,42.0,29.88,SSE,159,0.0,0.0,74,0.00,,,0.22,,2013-05-21 05:42:00,
2013-05-20 23:52:00,50.0,42.0,29.88,SSE,159,0.0,0.0,74,0.00,,,0.22,,2013-05-21 05:52:00,